Joffre, Pennsylvania
Current Conditions -  °F | °C
As of 11:51 PM on Saturday 25 Oct 2014 (Local Time) from KPIT Reporting Station
Clear Clear  
Wind Chill: 58°   Ceiling: Unl
Heat Index: 58°   Visibility: 10mi
Dew Point: 35°   Wind: 20mph
Humidity: 42%   Direction: 290°WNW
Pressure: 29.78"   Gusts: 30mph
Location:  40.38°N, 80.36°W
Report Text: KPIT 260351Z 29017G26KT 10SM CLR 14/02 A2978 RMK AO2 PK WND 30026/0341 SLP091 T01440017
Loading
Personal Weather Stations






























Interactive Weather Map New forecast layout! Learn more

10-Day Weather Forecast

Advertisements
Track Severe Weather on mobile